sensor_id;sensor_type;location;lat;lon;timestamp;temperature;humidity
12233;DHT22;6179;51.748;8.728;2022-07-26T00:00:11;21.30;81.50
12233;DHT22;6179;51.748;8.728;2022-07-26T00:06:13;21.20;80.20
12233;DHT22;6179;51.748;8.728;2022-07-26T00:12:14;21.20;80.30
12233;DHT22;6179;51.748;8.728;2022-07-26T00:18:15;21.10;81.10
12233;DHT22;6179;51.748;8.728;2022-07-26T00:24:16;21.10;80.70
12233;DHT22;6179;51.748;8.728;2022-07-26T00:30:17;20.90;81.70
12233;DHT22;6179;51.748;8.728;2022-07-26T00:36:17;20.70;81.90
12233;DHT22;6179;51.748;8.728;2022-07-26T00:42:18;20.60;82.90
12233;DHT22;6179;51.748;8.728;2022-07-26T00:48:19;20.80;83.10
12233;DHT22;6179;51.748;8.728;2022-07-26T00:54:19;21.00;82.50
12233;DHT22;6179;51.748;8.728;2022-07-26T01:00:23;20.70;83.10
12233;DHT22;6179;51.748;8.728;2022-07-26T01:06:27;20.70;83.50
12233;DHT22;6179;51.748;8.728;2022-07-26T01:12:27;20.90;82.60
12233;DHT22;6179;51.748;8.728;2022-07-26T01:18:28;21.10;82.10
12233;DHT22;6179;51.748;8.728;2022-07-26T01:24:29;21.10;81.80
12233;DHT22;6179;51.748;8.728;2022-07-26T01:30:29;20.80;82.60
12233;DHT22;6179;51.748;8.728;2022-07-26T01:36:30;20.70;83.00
12233;DHT22;6179;51.748;8.728;2022-07-26T01:42:31;20.50;82.80
12233;DHT22;6179;51.748;8.728;2022-07-26T01:48:32;20.50;83.00
12233;DHT22;6179;51.748;8.728;2022-07-26T01:54:32;20.50;82.50
12233;DHT22;6179;51.748;8.728;2022-07-26T02:00:33;20.20;83.80
12233;DHT22;6179;51.748;8.728;2022-07-26T02:06:34;20.40;82.60
12233;DHT22;6179;51.748;8.728;2022-07-26T02:12:35;20.40;82.90
12233;DHT22;6179;51.748;8.728;2022-07-26T02:18:36;20.20;83.10
12233;DHT22;6179;51.748;8.728;2022-07-26T02:24:37;20.20;83.50
12233;DHT22;6179;51.748;8.728;2022-07-26T02:30:38;20.00;84.40
12233;DHT22;6179;51.748;8.728;2022-07-26T02:36:39;20.10;84.30
12233;DHT22;6179;51.748;8.728;2022-07-26T02:42:40;19.80;85.80
12233;DHT22;6179;51.748;8.728;2022-07-26T02:48:43;19.70;85.80
12233;DHT22;6179;51.748;8.728;2022-07-26T02:54:44;19.30;87.80
12233;DHT22;6179;51.748;8.728;2022-07-26T03:00:45;19.10;88.20
12233;DHT22;6179;51.748;8.728;2022-07-26T03:06:45;19.00;89.00
12233;DHT22;6179;51.748;8.728;2022-07-26T03:12:46;18.80;90.30
12233;DHT22;6179;51.748;8.728;2022-07-26T03:18:46;18.60;90.70
12233;DHT22;6179;51.748;8.728;2022-07-26T03:24:47;18.50;91.40
12233;DHT22;6179;51.748;8.728;2022-07-26T03:30:48;18.60;91.30
12233;DHT22;6179;51.748;8.728;2022-07-26T03:36:48;18.80;91.10
12233;DHT22;6179;51.748;8.728;2022-07-26T03:42:49;18.90;91.20
12233;DHT22;6179;51.748;8.728;2022-07-26T03:48:50;19.00;91.10
12233;DHT22;6179;51.748;8.728;2022-07-26T03:54:51;19.30;90.60
12233;DHT22;6179;51.748;8.728;2022-07-26T04:00:52;19.20;90.00
12233;DHT22;6179;51.748;8.728;2022-07-26T04:06:52;19.00;90.90
12233;DHT22;6179;51.748;8.728;2022-07-26T04:12:54;18.70;91.10
12233;DHT22;6179;51.748;8.728;2022-07-26T04:18:54;18.40;92.60
12233;DHT22;6179;51.748;8.728;2022-07-26T04:24:55;18.30;92.60
12233;DHT22;6179;51.748;8.728;2022-07-26T04:30:57;18.20;92.80
12233;DHT22;6179;51.748;8.728;2022-07-26T04:36:57;18.60;91.30
12233;DHT22;6179;51.748;8.728;2022-07-26T04:42:59;18.60;91.70
12233;DHT22;6179;51.748;8.728;2022-07-26T04:49:00;18.70;92.10
12233;DHT22;6179;51.748;8.728;2022-07-26T04:55:01;19.00;91.00
12233;DHT22;6179;51.748;8.728;2022-07-26T05:01:02;18.80;91.90
12233;DHT22;6179;51.748;8.728;2022-07-26T05:07:02;19.20;90.30
12233;DHT22;6179;51.748;8.728;2022-07-26T05:13:04;19.40;89.70
12233;DHT22;6179;51.748;8.728;2022-07-26T05:19:05;19.40;89.50
12233;DHT22;6179;51.748;8.728;2022-07-26T05:25:06;19.70;89.60
12233;DHT22;6179;51.748;8.728;2022-07-26T05:31:07;19.90;88.00
12233;DHT22;6179;51.748;8.728;2022-07-26T05:37:08;19.60;89.60
12233;DHT22;6179;51.748;8.728;2022-07-26T05:43:09;19.60;89.60
12233;DHT22;6179;51.748;8.728;2022-07-26T05:49:09;19.80;88.60
12233;DHT22;6179;51.748;8.728;2022-07-26T05:55:10;19.90;89.00
12233;DHT22;6179;51.748;8.728;2022-07-26T06:01:11;19.80;89.90
12233;DHT22;6179;51.748;8.728;2022-07-26T06:07:12;19.90;88.80
12233;DHT22;6179;51.748;8.728;2022-07-26T06:13:13;20.10;88.10
12233;DHT22;6179;51.748;8.728;2022-07-26T06:19:13;20.20;88.60
12233;DHT22;6179;51.748;8.728;2022-07-26T06:25:14;20.20;88.90
12233;DHT22;6179;51.748;8.728;2022-07-26T06:31:14;19.80;90.10
12233;DHT22;6179;51.748;8.728;2022-07-26T06:37:16;20.00;90.30
12233;DHT22;6179;51.748;8.728;2022-07-26T06:43:17;20.30;89.30
12233;DHT22;6179;51.748;8.728;2022-07-26T06:49:18;20.10;89.50
12233;DHT22;6179;51.748;8.728;2022-07-26T06:55:20;19.80;90.50
12233;DHT22;6179;51.748;8.728;2022-07-26T07:01:21;18.90;94.20
12233;DHT22;6179;51.748;8.728;2022-07-26T07:07:22;19.20;94.10
12233;DHT22;6179;51.748;8.728;2022-07-26T07:13:22;19.40;93.50
12233;DHT22;6179;51.748;8.728;2022-07-26T07:19:24;19.50;94.20
12233;DHT22;6179;51.748;8.728;2022-07-26T07:25:24;19.80;93.20
12233;DHT22;6179;51.748;8.728;2022-07-26T07:31:25;20.00;93.10
12233;DHT22;6179;51.748;8.728;2022-07-26T07:37:26;19.60;93.20
12233;DHT22;6179;51.748;8.728;2022-07-26T07:43:27;19.20;96.00
12233;DHT22;6179;51.748;8.728;2022-07-26T07:49:27;19.60;95.30
12233;DHT22;6179;51.748;8.728;2022-07-26T07:55:28;19.80;93.90
12233;DHT22;6179;51.748;8.728;2022-07-26T08:01:29;20.20;92.10
12233;DHT22;6179;51.748;8.728;2022-07-26T08:07:29;20.60;92.20
12233;DHT22;6179;51.748;8.728;2022-07-26T08:13:30;21.10;91.70
12233;DHT22;6179;51.748;8.728;2022-07-26T08:19:31;21.40;91.40
12233;DHT22;6179;51.748;8.728;2022-07-26T08:25:31;21.70;88.50
12233;DHT22;6179;51.748;8.728;2022-07-26T08:31:32;21.80;88.60
12233;DHT22;6179;51.748;8.728;2022-07-26T08:37:32;21.30;90.10
12233;DHT22;6179;51.748;8.728;2022-07-26T08:43:33;21.10;89.50
12233;DHT22;6179;51.748;8.728;2022-07-26T08:49:34;20.80;90.00
12233;DHT22;6179;51.748;8.728;2022-07-26T08:55:35;21.20;90.40
12233;DHT22;6179;51.748;8.728;2022-07-26T09:07:56;21.70;89.30
12233;DHT22;6179;51.748;8.728;2022-07-26T09:13:59;22.20;87.80
12233;DHT22;6179;51.748;8.728;2022-07-26T09:20:08;22.50;84.00
12233;DHT22;6179;51.748;8.728;2022-07-26T09:26:09;22.30;86.70
12233;DHT22;6179;51.748;8.728;2022-07-26T09:32:19;22.80;84.60
12233;DHT22;6179;51.748;8.728;2022-07-26T09:38:20;22.70;83.20
12233;DHT22;6179;51.748;8.728;2022-07-26T09:44:23;22.10;81.70
12233;DHT22;6179;51.748;8.728;2022-07-26T09:50:32;22.30;84.70
12233;DHT22;6179;51.748;8.728;2022-07-26T10:02:44;23.70;81.20
12233;DHT22;6179;51.748;8.728;2022-07-26T10:08:44;23.60;79.80
12233;DHT22;6179;51.748;8.728;2022-07-26T10:14:46;23.50;79.90
12233;DHT22;6179;51.748;8.728;2022-07-26T10:20:50;23.30;79.20
12233;DHT22;6179;51.748;8.728;2022-07-26T10:26:50;23.30;82.90
12233;DHT22;6179;51.748;8.728;2022-07-26T10:32:58;23.10;79.30
12233;DHT22;6179;51.748;8.728;2022-07-26T10:45:16;22.00;87.10
12233;DHT22;6179;51.748;8.728;2022-07-26T10:51:30;20.40;92.60
12233;DHT22;6179;51.748;8.728;2022-07-26T10:57:40;19.40;95.00
12233;DHT22;6179;51.748;8.728;2022-07-26T11:03:42;18.70;97.40
12233;DHT22;6179;51.748;8.728;2022-07-26T11:09:42;18.50;98.30
12233;DHT22;6179;51.748;8.728;2022-07-26T11:15:57;18.30;98.30
12233;DHT22;6179;51.748;8.728;2022-07-26T11:21:59;18.10;98.30
12233;DHT22;6179;51.748;8.728;2022-07-26T11:28:00;18.00;98.30
12233;DHT22;6179;51.748;8.728;2022-07-26T11:34:02;18.00;98.30
12233;DHT22;6179;51.748;8.728;2022-07-26T11:40:03;18.30;98.30
12233;DHT22;6179;51.748;8.728;2022-07-26T11:46:05;18.20;98.30
12233;DHT22;6179;51.748;8.728;2022-07-26T11:52:06;18.30;98.30
12233;DHT22;6179;51.748;8.728;2022-07-26T11:58:07;18.50;98.30
12233;DHT22;6179;51.748;8.728;2022-07-26T12:04:36;19.10;98.30
12233;DHT22;6179;51.748;8.728;2022-07-26T12:10:37;19.70;98.30
12233;DHT22;6179;51.748;8.728;2022-07-26T12:16:42;19.80;98.30
12233;DHT22;6179;51.748;8.728;2022-07-26T12:22:54;20.20;98.30
12233;DHT22;6179;51.748;8.728;2022-07-26T12:28:56;20.50;98.30
12233;DHT22;6179;51.748;8.728;2022-07-26T12:41:08;20.90;93.80
12233;DHT22;6179;51.748;8.728;2022-07-26T12:47:10;20.60;95.50
12233;DHT22;6179;51.748;8.728;2022-07-26T12:53:10;20.40;97.00
12233;DHT22;6179;51.748;8.728;2022-07-26T12:59:11;21.20;94.30
12233;DHT22;6179;51.748;8.728;2022-07-26T13:05:12;21.10;90.80
12233;DHT22;6179;51.748;8.728;2022-07-26T13:11:14;21.60;89.70
12233;DHT22;6179;51.748;8.728;2022-07-26T13:17:15;21.90;91.40
12233;DHT22;6179;51.748;8.728;2022-07-26T13:23:16;22.30;86.20
12233;DHT22;6179;51.748;8.728;2022-07-26T13:29:17;22.20;87.90
12233;DHT22;6179;51.748;8.728;2022-07-26T13:35:18;22.30;85.20
12233;DHT22;6179;51.748;8.728;2022-07-26T13:41:19;21.70;88.80
12233;DHT22;6179;51.748;8.728;2022-07-26T13:47:19;21.60;88.60
12233;DHT22;6179;51.748;8.728;2022-07-26T13:53:20;22.00;86.60
12233;DHT22;6179;51.748;8.728;2022-07-26T13:59:21;21.60;88.30
12233;DHT22;6179;51.748;8.728;2022-07-26T14:05:22;21.90;87.10
12233;DHT22;6179;51.748;8.728;2022-07-26T14:11:24;22.10;87.50
12233;DHT22;6179;51.748;8.728;2022-07-26T14:17:24;21.50;86.50
12233;DHT22;6179;51.748;8.728;2022-07-26T14:23:25;21.50;87.50
12233;DHT22;6179;51.748;8.728;2022-07-26T14:29:26;21.20;90.90
12233;DHT22;6179;51.748;8.728;2022-07-26T14:35:27;21.30;88.70
12233;DHT22;6179;51.748;8.728;2022-07-26T14:41:28;20.80;92.00
12233;DHT22;6179;51.748;8.728;2022-07-26T14:47:28;20.70;93.20
12233;DHT22;6179;51.748;8.728;2022-07-26T14:53:29;20.50;91.50
12233;DHT22;6179;51.748;8.728;2022-07-26T14:59:30;19.80;93.80
12233;DHT22;6179;51.748;8.728;2022-07-26T15:05:31;19.70;94.40
12233;DHT22;6179;51.748;8.728;2022-07-26T15:11:31;19.60;94.40
12233;DHT22;6179;51.748;8.728;2022-07-26T15:17:33;19.40;96.80
12233;DHT22;6179;51.748;8.728;2022-07-26T15:23:34;19.60;98.10
12233;DHT22;6179;51.748;8.728;2022-07-26T15:29:35;19.40;97.00
12233;DHT22;6179;51.748;8.728;2022-07-26T15:35:36;19.70;95.10
12233;DHT22;6179;51.748;8.728;2022-07-26T15:41:39;19.70;96.80
12233;DHT22;6179;51.748;8.728;2022-07-26T15:47:41;19.70;95.30
12233;DHT22;6179;51.748;8.728;2022-07-26T15:53:42;19.80;92.40
12233;DHT22;6179;51.748;8.728;2022-07-26T15:59:43;19.80;93.70
12233;DHT22;6179;51.748;8.728;2022-07-26T16:05:44;19.80;93.20
12233;DHT22;6179;51.748;8.728;2022-07-26T16:11:47;19.90;89.00
12233;DHT22;6179;51.748;8.728;2022-07-26T16:17:48;20.20;90.80
12233;DHT22;6179;51.748;8.728;2022-07-26T16:23:49;20.20;89.30
12233;DHT22;6179;51.748;8.728;2022-07-26T16:29:50;20.20;89.00
12233;DHT22;6179;51.748;8.728;2022-07-26T16:35:51;20.50;88.90
12233;DHT22;6179;51.748;8.728;2022-07-26T16:41:51;20.80;87.50
12233;DHT22;6179;51.748;8.728;2022-07-26T16:47:52;20.30;88.60
12233;DHT22;6179;51.748;8.728;2022-07-26T16:53:52;20.40;86.90
12233;DHT22;6179;51.748;8.728;2022-07-26T16:59:54;20.50;87.80
12233;DHT22;6179;51.748;8.728;2022-07-26T17:05:55;20.30;88.60
12233;DHT22;6179;51.748;8.728;2022-07-26T17:11:55;20.60;86.60
12233;DHT22;6179;51.748;8.728;2022-07-26T17:17:56;20.10;88.60
12233;DHT22;6179;51.748;8.728;2022-07-26T17:23:57;20.10;89.30
12233;DHT22;6179;51.748;8.728;2022-07-26T17:29:58;19.90;89.20
12233;DHT22;6179;51.748;8.728;2022-07-26T17:35:59;19.80;91.50
12233;DHT22;6179;51.748;8.728;2022-07-26T17:42:00;20.40;86.40
12233;DHT22;6179;51.748;8.728;2022-07-26T17:48:00;20.50;87.70
12233;DHT22;6179;51.748;8.728;2022-07-26T17:54:01;20.30;87.70
12233;DHT22;6179;51.748;8.728;2022-07-26T18:00:03;20.30;87.10
12233;DHT22;6179;51.748;8.728;2022-07-26T18:06:03;20.40;86.60
12233;DHT22;6179;51.748;8.728;2022-07-26T18:12:05;20.10;89.00
12233;DHT22;6179;51.748;8.728;2022-07-26T18:18:06;20.00;88.30
12233;DHT22;6179;51.748;8.728;2022-07-26T18:24:08;20.20;88.00
12233;DHT22;6179;51.748;8.728;2022-07-26T18:30:09;19.90;89.40
12233;DHT22;6179;51.748;8.728;2022-07-26T18:36:10;20.10;87.30
12233;DHT22;6179;51.748;8.728;2022-07-26T18:42:10;20.10;89.20
12233;DHT22;6179;51.748;8.728;2022-07-26T18:48:11;20.20;88.10
12233;DHT22;6179;51.748;8.728;2022-07-26T18:54:12;20.00;90.20
12233;DHT22;6179;51.748;8.728;2022-07-26T19:00:15;19.90;89.90
12233;DHT22;6179;51.748;8.728;2022-07-26T19:06:16;19.80;91.50
12233;DHT22;6179;51.748;8.728;2022-07-26T19:12:17;19.70;91.20
12233;DHT22;6179;51.748;8.728;2022-07-26T19:18:17;19.80;91.00
12233;DHT22;6179;51.748;8.728;2022-07-26T19:24:18;19.70;92.50
12233;DHT22;6179;51.748;8.728;2022-07-26T19:30:18;20.00;90.10
12233;DHT22;6179;51.748;8.728;2022-07-26T19:36:19;20.00;89.00
12233;DHT22;6179;51.748;8.728;2022-07-26T19:42:20;19.70;92.90
12233;DHT22;6179;51.748;8.728;2022-07-26T19:48:21;19.40;96.40
12233;DHT22;6179;51.748;8.728;2022-07-26T19:54:21;19.50;96.90
12233;DHT22;6179;51.748;8.728;2022-07-26T20:00:22;19.00;98.30
12233;DHT22;6179;51.748;8.728;2022-07-26T20:06:23;18.70;98.30
12233;DHT22;6179;51.748;8.728;2022-07-26T20:12:24;18.50;98.30
12233;DHT22;6179;51.748;8.728;2022-07-26T20:18:25;18.40;98.30
12233;DHT22;6179;51.748;8.728;2022-07-26T20:24:27;18.20;98.30
12233;DHT22;6179;51.748;8.728;2022-07-26T20:30:28;18.00;98.30
12233;DHT22;6179;51.748;8.728;2022-07-26T20:36:29;17.90;98.30
12233;DHT22;6179;51.748;8.728;2022-07-26T20:42:29;17.90;98.30
12233;DHT22;6179;51.748;8.728;2022-07-26T20:48:30;17.80;98.30
12233;DHT22;6179;51.748;8.728;2022-07-26T20:54:31;17.80;98.30
12233;DHT22;6179;51.748;8.728;2022-07-26T21:00:32;17.70;98.30
12233;DHT22;6179;51.748;8.728;2022-07-26T21:06:33;17.50;98.30
12233;DHT22;6179;51.748;8.728;2022-07-26T21:12:33;17.50;98.30
12233;DHT22;6179;51.748;8.728;2022-07-26T21:18:34;17.00;98.30
12233;DHT22;6179;51.748;8.728;2022-07-26T21:24:35;16.90;98.30
12233;DHT22;6179;51.748;8.728;2022-07-26T21:30:35;16.90;98.30
12233;DHT22;6179;51.748;8.728;2022-07-26T21:36:36;16.90;98.30
12233;DHT22;6179;51.748;8.728;2022-07-26T21:42:39;16.70;98.30
12233;DHT22;6179;51.748;8.728;2022-07-26T21:48:40;16.60;98.30
12233;DHT22;6179;51.748;8.728;2022-07-26T21:54:40;16.20;98.30
12233;DHT22;6179;51.748;8.728;2022-07-26T22:00:41;16.20;98.30
12233;DHT22;6179;51.748;8.728;2022-07-26T22:06:43;16.20;98.30
12233;DHT22;6179;51.748;8.728;2022-07-26T22:12:43;16.00;98.30
12233;DHT22;6179;51.748;8.728;2022-07-26T22:18:44;16.00;98.30
12233;DHT22;6179;51.748;8.728;2022-07-26T22:24:45;16.20;98.30
12233;DHT22;6179;51.748;8.728;2022-07-26T22:30:45;16.20;98.30
12233;DHT22;6179;51.748;8.728;2022-07-26T22:36:46;16.20;98.30
12233;DHT22;6179;51.748;8.728;2022-07-26T22:42:47;16.20;98.30
12233;DHT22;6179;51.748;8.728;2022-07-26T22:48:48;16.40;98.30
12233;DHT22;6179;51.748;8.728;2022-07-26T22:54:48;16.30;98.30
12233;DHT22;6179;51.748;8.728;2022-07-26T23:00:49;16.40;98.30
12233;DHT22;6179;51.748;8.728;2022-07-26T23:06:50;16.40;98.30
12233;DHT22;6179;51.748;8.728;2022-07-26T23:12:50;16.30;98.30
12233;DHT22;6179;51.748;8.728;2022-07-26T23:18:52;16.20;98.30
12233;DHT22;6179;51.748;8.728;2022-07-26T23:24:53;16.20;98.30
12233;DHT22;6179;51.748;8.728;2022-07-26T23:30:54;16.10;98.30
12233;DHT22;6179;51.748;8.728;2022-07-26T23:36:54;16.10;98.30
12233;DHT22;6179;51.748;8.728;2022-07-26T23:42:55;16.10;98.30
12233;DHT22;6179;51.748;8.728;2022-07-26T23:48:56;16.20;98.30
12233;DHT22;6179;51.748;8.728;2022-07-26T23:54:57;16.20;98.30
